sensor_id;sensor_type;location;lat;lon;timestamp;P1;durP1;ratioP1;P2;durP2;ratioP2
9844;SDS011;4961;50.782;6.080;2022-11-20T00:01:39;23.47;;;14.83;;
9844;SDS011;4961;50.782;6.080;2022-11-20T00:04:07;20.53;;;14.07;;
9844;SDS011;4961;50.782;6.080;2022-11-20T00:06:38;18.30;;;13.23;;
9844;SDS011;4961;50.782;6.080;2022-11-20T00:09:06;21.13;;;14.07;;
9844;SDS011;4961;50.782;6.080;2022-11-20T00:11:39;21.37;;;13.10;;
9844;SDS011;4961;50.782;6.080;2022-11-20T00:14:09;20.53;;;14.00;;
9844;SDS011;4961;50.782;6.080;2022-11-20T00:16:38;19.33;;;13.67;;
9844;SDS011;4961;50.782;6.080;2022-11-20T00:19:06;21.93;;;14.37;;
9844;SDS011;4961;50.782;6.080;2022-11-20T00:21:34;22.77;;;14.73;;
9844;SDS011;4961;50.782;6.080;2022-11-20T00:24:03;19.17;;;12.93;;
9844;SDS011;4961;50.782;6.080;2022-11-20T00:26:34;19.83;;;13.27;;
9844;SDS011;4961;50.782;6.080;2022-11-20T00:29:02;20.83;;;13.90;;
9844;SDS011;4961;50.782;6.080;2022-11-20T00:31:32;22.40;;;14.30;;
9844;SDS011;4961;50.782;6.080;2022-11-20T00:34:02;23.90;;;15.10;;
9844;SDS011;4961;50.782;6.080;2022-11-20T00:36:32;22.20;;;15.07;;
9844;SDS011;4961;50.782;6.080;2022-11-20T00:39:01;25.90;;;15.20;;
9844;SDS011;4961;50.782;6.080;2022-11-20T00:41:30;20.43;;;13.70;;
9844;SDS011;4961;50.782;6.080;2022-11-20T00:43:59;25.10;;;14.77;;
9844;SDS011;4961;50.782;6.080;2022-11-20T00:46:28;21.97;;;14.13;;
9844;SDS011;4961;50.782;6.080;2022-11-20T00:48:58;23.03;;;15.20;;
9844;SDS011;4961;50.782;6.080;2022-11-20T00:51:26;22.33;;;15.07;;
9844;SDS011;4961;50.782;6.080;2022-11-20T00:53:55;22.43;;;14.20;;
9844;SDS011;4961;50.782;6.080;2022-11-20T00:56:24;22.77;;;13.70;;
9844;SDS011;4961;50.782;6.080;2022-11-20T00:58:53;20.47;;;13.37;;
9844;SDS011;4961;50.782;6.080;2022-11-20T01:01:24;22.27;;;13.93;;
9844;SDS011;4961;50.782;6.080;2022-11-20T01:03:55;20.43;;;13.63;;
9844;SDS011;4961;50.782;6.080;2022-11-20T01:06:27;18.13;;;12.63;;
9844;SDS011;4961;50.782;6.080;2022-11-20T01:08:57;18.13;;;12.40;;
9844;SDS011;4961;50.782;6.080;2022-11-20T01:11:27;20.13;;;12.57;;
9844;SDS011;4961;50.782;6.080;2022-11-20T01:13:57;19.00;;;12.67;;
9844;SDS011;4961;50.782;6.080;2022-11-20T01:16:28;20.27;;;13.27;;
9844;SDS011;4961;50.782;6.080;2022-11-20T01:19:01;19.40;;;12.43;;
9844;SDS011;4961;50.782;6.080;2022-11-20T01:21:31;18.87;;;12.37;;
9844;SDS011;4961;50.782;6.080;2022-11-20T01:24:01;17.43;;;11.97;;
9844;SDS011;4961;50.782;6.080;2022-11-20T01:26:30;18.97;;;12.83;;
9844;SDS011;4961;50.782;6.080;2022-11-20T01:29:02;16.77;;;11.63;;
9844;SDS011;4961;50.782;6.080;2022-11-20T01:31:32;18.13;;;12.53;;
9844;SDS011;4961;50.782;6.080;2022-11-20T01:34:03;18.43;;;11.50;;
9844;SDS011;4961;50.782;6.080;2022-11-20T01:36:33;18.53;;;12.30;;
9844;SDS011;4961;50.782;6.080;2022-11-20T01:39:03;18.70;;;12.77;;
9844;SDS011;4961;50.782;6.080;2022-11-20T01:41:33;22.07;;;13.33;;
9844;SDS011;4961;50.782;6.080;2022-11-20T01:44:20;19.73;;;12.23;;
9844;SDS011;4961;50.782;6.080;2022-11-20T01:46:52;20.40;;;12.37;;
9844;SDS011;4961;50.782;6.080;2022-11-20T01:49:26;19.30;;;13.27;;
9844;SDS011;4961;50.782;6.080;2022-11-20T01:52:00;20.53;;;13.10;;
9844;SDS011;4961;50.782;6.080;2022-11-20T01:54:33;19.87;;;13.20;;
9844;SDS011;4961;50.782;6.080;2022-11-20T01:57:04;18.33;;;12.97;;
9844;SDS011;4961;50.782;6.080;2022-11-20T01:59:36;18.03;;;12.30;;
9844;SDS011;4961;50.782;6.080;2022-11-20T02:02:13;20.67;;;13.27;;
9844;SDS011;4961;50.782;6.080;2022-11-20T02:04:43;22.97;;;13.13;;
9844;SDS011;4961;50.782;6.080;2022-11-20T02:07:11;22.63;;;13.77;;
9844;SDS011;4961;50.782;6.080;2022-11-20T02:09:42;20.57;;;13.80;;
9844;SDS011;4961;50.782;6.080;2022-11-20T02:12:10;23.67;;;15.27;;
9844;SDS011;4961;50.782;6.080;2022-11-20T02:14:54;21.10;;;14.57;;
9844;SDS011;4961;50.782;6.080;2022-11-20T02:17:24;18.83;;;13.73;;
9844;SDS011;4961;50.782;6.080;2022-11-20T02:19:54;22.90;;;15.57;;
9844;SDS011;4961;50.782;6.080;2022-11-20T02:22:24;20.77;;;13.70;;
9844;SDS011;4961;50.782;6.080;2022-11-20T02:24:57;20.27;;;13.03;;
9844;SDS011;4961;50.782;6.080;2022-11-20T02:27:28;22.50;;;14.53;;
9844;SDS011;4961;50.782;6.080;2022-11-20T02:29:57;20.03;;;13.07;;
9844;SDS011;4961;50.782;6.080;2022-11-20T02:32:29;21.60;;;13.67;;
9844;SDS011;4961;50.782;6.080;2022-11-20T02:35:06;18.97;;;13.03;;
9844;SDS011;4961;50.782;6.080;2022-11-20T02:37:43;19.40;;;12.87;;
9844;SDS011;4961;50.782;6.080;2022-11-20T02:40:20;20.53;;;13.43;;
9844;SDS011;4961;50.782;6.080;2022-11-20T02:42:51;20.83;;;13.33;;
9844;SDS011;4961;50.782;6.080;2022-11-20T02:45:19;22.00;;;13.07;;
9844;SDS011;4961;50.782;6.080;2022-11-20T02:47:48;17.67;;;12.00;;
9844;SDS011;4961;50.782;6.080;2022-11-20T02:50:17;19.50;;;12.10;;
9844;SDS011;4961;50.782;6.080;2022-11-20T02:52:46;16.90;;;11.33;;
9844;SDS011;4961;50.782;6.080;2022-11-20T02:55:14;19.77;;;12.33;;
9844;SDS011;4961;50.782;6.080;2022-11-20T02:57:44;15.03;;;10.80;;
9844;SDS011;4961;50.782;6.080;2022-11-20T03:00:15;16.83;;;11.43;;
9844;SDS011;4961;50.782;6.080;2022-11-20T03:02:43;13.73;;;10.00;;
9844;SDS011;4961;50.782;6.080;2022-11-20T03:05:11;17.83;;;11.40;;
9844;SDS011;4961;50.782;6.080;2022-11-20T03:07:40;15.77;;;10.50;;
9844;SDS011;4961;50.782;6.080;2022-11-20T03:10:08;18.00;;;11.73;;
9844;SDS011;4961;50.782;6.080;2022-11-20T03:12:37;17.67;;;10.77;;
9844;SDS011;4961;50.782;6.080;2022-11-20T03:15:07;16.63;;;10.60;;
9844;SDS011;4961;50.782;6.080;2022-11-20T03:17:38;17.30;;;11.60;;
9844;SDS011;4961;50.782;6.080;2022-11-20T03:20:06;19.20;;;11.93;;
9844;SDS011;4961;50.782;6.080;2022-11-20T03:22:35;18.10;;;11.37;;
9844;SDS011;4961;50.782;6.080;2022-11-20T03:25:04;17.20;;;10.73;;
9844;SDS011;4961;50.782;6.080;2022-11-20T03:27:33;20.17;;;11.70;;
9844;SDS011;4961;50.782;6.080;2022-11-20T03:30:02;19.30;;;11.33;;
9844;SDS011;4961;50.782;6.080;2022-11-20T03:32:33;15.07;;;10.57;;
9844;SDS011;4961;50.782;6.080;2022-11-20T03:35:01;16.80;;;11.43;;
9844;SDS011;4961;50.782;6.080;2022-11-20T03:37:31;14.67;;;9.77;;
9844;SDS011;4961;50.782;6.080;2022-11-20T03:40:00;16.10;;;10.50;;
9844;SDS011;4961;50.782;6.080;2022-11-20T03:42:29;18.40;;;11.20;;
9844;SDS011;4961;50.782;6.080;2022-11-20T03:45:14;17.97;;;10.77;;
9844;SDS011;4961;50.782;6.080;2022-11-20T03:47:45;17.53;;;12.10;;
9844;SDS011;4961;50.782;6.080;2022-11-20T03:50:13;17.57;;;11.83;;
9844;SDS011;4961;50.782;6.080;2022-11-20T03:52:42;19.00;;;11.57;;
9844;SDS011;4961;50.782;6.080;2022-11-20T03:55:10;23.13;;;14.00;;
9844;SDS011;4961;50.782;6.080;2022-11-20T03:57:38;20.40;;;12.93;;
9844;SDS011;4961;50.782;6.080;2022-11-20T04:00:07;22.80;;;13.33;;
9844;SDS011;4961;50.782;6.080;2022-11-20T04:02:36;21.73;;;13.23;;
9844;SDS011;4961;50.782;6.080;2022-11-20T04:05:06;21.67;;;13.40;;
9844;SDS011;4961;50.782;6.080;2022-11-20T04:07:35;19.40;;;12.43;;
9844;SDS011;4961;50.782;6.080;2022-11-20T04:10:03;22.13;;;13.37;;
9844;SDS011;4961;50.782;6.080;2022-11-20T04:12:32;22.07;;;13.97;;
9844;SDS011;4961;50.782;6.080;2022-11-20T04:15:02;21.30;;;14.07;;
9844;SDS011;4961;50.782;6.080;2022-11-20T04:17:30;21.93;;;13.90;;
9844;SDS011;4961;50.782;6.080;2022-11-20T04:19:58;24.67;;;14.73;;
9844;SDS011;4961;50.782;6.080;2022-11-20T04:22:28;25.50;;;14.93;;
9844;SDS011;4961;50.782;6.080;2022-11-20T04:24:56;26.30;;;14.93;;
9844;SDS011;4961;50.782;6.080;2022-11-20T04:27:25;25.83;;;15.77;;
9844;SDS011;4961;50.782;6.080;2022-11-20T04:29:55;26.37;;;15.57;;
9844;SDS011;4961;50.782;6.080;2022-11-20T04:32:23;31.53;;;17.37;;
9844;SDS011;4961;50.782;6.080;2022-11-20T04:34:52;30.30;;;15.87;;
9844;SDS011;4961;50.782;6.080;2022-11-20T04:37:20;25.23;;;16.40;;
9844;SDS011;4961;50.782;6.080;2022-11-20T04:39:49;27.73;;;16.87;;
9844;SDS011;4961;50.782;6.080;2022-11-20T04:42:17;29.07;;;16.97;;
9844;SDS011;4961;50.782;6.080;2022-11-20T04:44:59;30.83;;;17.67;;
9844;SDS011;4961;50.782;6.080;2022-11-20T04:47:27;29.17;;;17.13;;
9844;SDS011;4961;50.782;6.080;2022-11-20T04:49:58;25.47;;;16.77;;
9844;SDS011;4961;50.782;6.080;2022-11-20T04:52:26;31.23;;;17.17;;
9844;SDS011;4961;50.782;6.080;2022-11-20T04:54:55;31.13;;;17.13;;
9844;SDS011;4961;50.782;6.080;2022-11-20T04:57:24;28.70;;;17.30;;
9844;SDS011;4961;50.782;6.080;2022-11-20T04:59:53;32.40;;;18.33;;
9844;SDS011;4961;50.782;6.080;2022-11-20T05:02:22;29.03;;;17.17;;
9844;SDS011;4961;50.782;6.080;2022-11-20T05:04:50;32.13;;;17.47;;
9844;SDS011;4961;50.782;6.080;2022-11-20T05:07:18;30.77;;;17.30;;
9844;SDS011;4961;50.782;6.080;2022-11-20T05:09:47;26.37;;;15.67;;
9844;SDS011;4961;50.782;6.080;2022-11-20T05:12:16;31.00;;;18.23;;
9844;SDS011;4961;50.782;6.080;2022-11-20T05:14:45;32.07;;;17.90;;
9844;SDS011;4961;50.782;6.080;2022-11-20T05:17:14;32.63;;;18.13;;
9844;SDS011;4961;50.782;6.080;2022-11-20T05:19:42;32.77;;;17.13;;
9844;SDS011;4961;50.782;6.080;2022-11-20T05:22:14;29.87;;;17.03;;
9844;SDS011;4961;50.782;6.080;2022-11-20T05:24:42;32.07;;;16.97;;
9844;SDS011;4961;50.782;6.080;2022-11-20T05:27:11;27.10;;;17.10;;
9844;SDS011;4961;50.782;6.080;2022-11-20T05:29:40;31.83;;;16.97;;
9844;SDS011;4961;50.782;6.080;2022-11-20T05:32:08;32.43;;;19.73;;
9844;SDS011;4961;50.782;6.080;2022-11-20T05:34:37;34.57;;;19.50;;
9844;SDS011;4961;50.782;6.080;2022-11-20T05:37:05;33.73;;;18.20;;
9844;SDS011;4961;50.782;6.080;2022-11-20T05:39:33;31.37;;;18.60;;
9844;SDS011;4961;50.782;6.080;2022-11-20T05:42:01;31.17;;;17.87;;
9844;SDS011;4961;50.782;6.080;2022-11-20T05:44:48;31.73;;;19.27;;
9844;SDS011;4961;50.782;6.080;2022-11-20T05:47:16;31.57;;;17.70;;
9844;SDS011;4961;50.782;6.080;2022-11-20T05:49:44;33.33;;;18.30;;
9844;SDS011;4961;50.782;6.080;2022-11-20T05:52:12;31.53;;;18.43;;
9844;SDS011;4961;50.782;6.080;2022-11-20T05:54:41;28.87;;;16.97;;
9844;SDS011;4961;50.782;6.080;2022-11-20T05:57:09;32.07;;;17.23;;
9844;SDS011;4961;50.782;6.080;2022-11-20T05:59:37;32.90;;;17.57;;
9844;SDS011;4961;50.782;6.080;2022-11-20T06:02:07;31.03;;;18.10;;
9844;SDS011;4961;50.782;6.080;2022-11-20T06:04:35;29.53;;;17.03;;
9844;SDS011;4961;50.782;6.080;2022-11-20T06:07:04;32.03;;;17.63;;
9844;SDS011;4961;50.782;6.080;2022-11-20T06:09:32;24.33;;;16.10;;
9844;SDS011;4961;50.782;6.080;2022-11-20T06:12:01;29.77;;;16.87;;
9844;SDS011;4961;50.782;6.080;2022-11-20T06:14:29;30.83;;;17.00;;
9844;SDS011;4961;50.782;6.080;2022-11-20T06:16:57;26.53;;;16.00;;
9844;SDS011;4961;50.782;6.080;2022-11-20T06:19:27;27.90;;;16.73;;
9844;SDS011;4961;50.782;6.080;2022-11-20T06:21:55;28.83;;;16.47;;
9844;SDS011;4961;50.782;6.080;2022-11-20T06:24:23;27.20;;;16.03;;
9844;SDS011;4961;50.782;6.080;2022-11-20T06:26:58;21.13;;;15.13;;
9844;SDS011;4961;50.782;6.080;2022-11-20T06:29:26;23.70;;;15.10;;
9844;SDS011;4961;50.782;6.080;2022-11-20T06:31:59;24.17;;;14.73;;
9844;SDS011;4961;50.782;6.080;2022-11-20T06:34:29;26.53;;;14.73;;
9844;SDS011;4961;50.782;6.080;2022-11-20T06:36:57;24.80;;;15.67;;
9844;SDS011;4961;50.782;6.080;2022-11-20T06:39:26;20.37;;;13.47;;
9844;SDS011;4961;50.782;6.080;2022-11-20T06:41:56;22.60;;;14.03;;
9844;SDS011;4961;50.782;6.080;2022-11-20T06:44:25;22.87;;;13.33;;
9844;SDS011;4961;50.782;6.080;2022-11-20T06:46:53;21.40;;;13.23;;
9844;SDS011;4961;50.782;6.080;2022-11-20T06:49:22;22.87;;;14.07;;
9844;SDS011;4961;50.782;6.080;2022-11-20T06:51:53;21.67;;;12.90;;
9844;SDS011;4961;50.782;6.080;2022-11-20T06:54:21;19.77;;;13.17;;
9844;SDS011;4961;50.782;6.080;2022-11-20T06:56:49;22.93;;;14.07;;
9844;SDS011;4961;50.782;6.080;2022-11-20T06:59:18;23.47;;;14.03;;
9844;SDS011;4961;50.782;6.080;2022-11-20T07:01:46;20.67;;;13.80;;
9844;SDS011;4961;50.782;6.080;2022-11-20T07:04:14;23.83;;;13.40;;
9844;SDS011;4961;50.782;6.080;2022-11-20T07:06:42;24.90;;;13.97;;
9844;SDS011;4961;50.782;6.080;2022-11-20T07:09:12;21.33;;;12.93;;
9844;SDS011;4961;50.782;6.080;2022-11-20T07:11:41;20.57;;;13.23;;
9844;SDS011;4961;50.782;6.080;2022-11-20T07:14:10;21.70;;;13.03;;
9844;SDS011;4961;50.782;6.080;2022-11-20T07:16:38;19.63;;;13.00;;
9844;SDS011;4961;50.782;6.080;2022-11-20T07:19:06;23.37;;;13.30;;
9844;SDS011;4961;50.782;6.080;2022-11-20T07:21:34;21.60;;;13.37;;
9844;SDS011;4961;50.782;6.080;2022-11-20T07:24:03;21.83;;;13.00;;
9844;SDS011;4961;50.782;6.080;2022-11-20T07:26:32;18.13;;;12.43;;
9844;SDS011;4961;50.782;6.080;2022-11-20T07:29:03;20.20;;;13.53;;
9844;SDS011;4961;50.782;6.080;2022-11-20T07:31:32;17.90;;;12.37;;
9844;SDS011;4961;50.782;6.080;2022-11-20T07:34:00;23.03;;;13.07;;
9844;SDS011;4961;50.782;6.080;2022-11-20T07:36:29;18.83;;;12.93;;
9844;SDS011;4961;50.782;6.080;2022-11-20T07:38:57;21.30;;;12.63;;
9844;SDS011;4961;50.782;6.080;2022-11-20T07:41:28;17.43;;;11.20;;
9844;SDS011;4961;50.782;6.080;2022-11-20T07:43:58;19.40;;;12.50;;
9844;SDS011;4961;50.782;6.080;2022-11-20T07:46:26;23.40;;;13.23;;
9844;SDS011;4961;50.782;6.080;2022-11-20T07:48:57;18.90;;;11.80;;
9844;SDS011;4961;50.782;6.080;2022-11-20T07:51:25;22.13;;;12.87;;
9844;SDS011;4961;50.782;6.080;2022-11-20T07:53:53;20.17;;;12.27;;
9844;SDS011;4961;50.782;6.080;2022-11-20T07:56:22;20.37;;;12.87;;
9844;SDS011;4961;50.782;6.080;2022-11-20T07:58:50;20.33;;;13.40;;
9844;SDS011;4961;50.782;6.080;2022-11-20T08:01:20;19.90;;;13.10;;
9844;SDS011;4961;50.782;6.080;2022-11-20T08:03:48;22.33;;;14.10;;
9844;SDS011;4961;50.782;6.080;2022-11-20T08:06:16;20.43;;;13.50;;
9844;SDS011;4961;50.782;6.080;2022-11-20T08:08:45;18.50;;;13.00;;
9844;SDS011;4961;50.782;6.080;2022-11-20T08:11:14;22.30;;;14.20;;
9844;SDS011;4961;50.782;6.080;2022-11-20T08:13:56;23.33;;;13.63;;
9844;SDS011;4961;50.782;6.080;2022-11-20T08:16:41;22.40;;;13.50;;
9844;SDS011;4961;50.782;6.080;2022-11-20T08:19:11;21.00;;;15.10;;
9844;SDS011;4961;50.782;6.080;2022-11-20T08:21:39;19.80;;;13.17;;
9844;SDS011;4961;50.782;6.080;2022-11-20T08:24:08;22.90;;;13.47;;
9844;SDS011;4961;50.782;6.080;2022-11-20T08:26:43;21.13;;;13.67;;
9844;SDS011;4961;50.782;6.080;2022-11-20T08:29:11;17.60;;;12.97;;
9844;SDS011;4961;50.782;6.080;2022-11-20T08:31:41;18.33;;;12.37;;
9844;SDS011;4961;50.782;6.080;2022-11-20T08:34:09;19.57;;;12.47;;
9844;SDS011;4961;50.782;6.080;2022-11-20T08:36:48;19.67;;;12.33;;
9844;SDS011;4961;50.782;6.080;2022-11-20T08:39:16;22.63;;;13.57;;
9844;SDS011;4961;50.782;6.080;2022-11-20T08:41:45;20.93;;;12.80;;
9844;SDS011;4961;50.782;6.080;2022-11-20T08:44:16;19.97;;;12.90;;
9844;SDS011;4961;50.782;6.080;2022-11-20T08:46:45;22.23;;;12.83;;
9844;SDS011;4961;50.782;6.080;2022-11-20T08:49:14;20.27;;;13.20;;
9844;SDS011;4961;50.782;6.080;2022-11-20T08:51:42;19.77;;;12.80;;
9844;SDS011;4961;50.782;6.080;2022-11-20T08:54:11;26.60;;;14.07;;
9844;SDS011;4961;50.782;6.080;2022-11-20T08:56:39;29.37;;;14.23;;
9844;SDS011;4961;50.782;6.080;2022-11-20T08:59:08;22.93;;;13.47;;
9844;SDS011;4961;50.782;6.080;2022-11-20T09:01:57;27.47;;;15.57;;
9844;SDS011;4961;50.782;6.080;2022-11-20T09:04:28;25.70;;;14.10;;
9844;SDS011;4961;50.782;6.080;2022-11-20T09:07:05;28.00;;;14.77;;
9844;SDS011;4961;50.782;6.080;2022-11-20T09:09:40;23.33;;;14.33;;
9844;SDS011;4961;50.782;6.080;2022-11-20T09:12:08;28.40;;;13.97;;
9844;SDS011;4961;50.782;6.080;2022-11-20T09:14:36;26.63;;;14.60;;
9844;SDS011;4961;50.782;6.080;2022-11-20T09:17:06;28.17;;;15.27;;
9844;SDS011;4961;50.782;6.080;2022-11-20T09:19:36;31.57;;;16.33;;
9844;SDS011;4961;50.782;6.080;2022-11-20T09:22:04;29.53;;;14.87;;
9844;SDS011;4961;50.782;6.080;2022-11-20T09:24:33;25.43;;;13.10;;
9844;SDS011;4961;50.782;6.080;2022-11-20T09:27:02;29.07;;;14.67;;
9844;SDS011;4961;50.782;6.080;2022-11-20T09:29:31;30.03;;;15.87;;
9844;SDS011;4961;50.782;6.080;2022-11-20T09:32:00;29.37;;;15.23;;
9844;SDS011;4961;50.782;6.080;2022-11-20T09:34:31;32.30;;;15.60;;
9844;SDS011;4961;50.782;6.080;2022-11-20T09:37:02;28.20;;;15.90;;
9844;SDS011;4961;50.782;6.080;2022-11-20T09:39:33;28.63;;;15.83;;
9844;SDS011;4961;50.782;6.080;2022-11-20T09:42:09;30.73;;;16.27;;
9844;SDS011;4961;50.782;6.080;2022-11-20T09:44:54;28.60;;;15.07;;
9844;SDS011;4961;50.782;6.080;2022-11-20T09:47:44;30.07;;;16.47;;
9844;SDS011;4961;50.782;6.080;2022-11-20T09:50:25;35.90;;;17.20;;
9844;SDS011;4961;50.782;6.080;2022-11-20T09:53:11;30.03;;;16.53;;
9844;SDS011;4961;50.782;6.080;2022-11-20T09:55:43;30.30;;;16.00;;
9844;SDS011;4961;50.782;6.080;2022-11-20T09:58:16;31.17;;;16.70;;
9844;SDS011;4961;50.782;6.080;2022-11-20T10:00:56;28.43;;;15.37;;
9844;SDS011;4961;50.782;6.080;2022-11-20T10:03:31;28.97;;;15.53;;
9844;SDS011;4961;50.782;6.080;2022-11-20T10:06:07;26.83;;;15.93;;
9844;SDS011;4961;50.782;6.080;2022-11-20T10:08:41;30.37;;;16.10;;
9844;SDS011;4961;50.782;6.080;2022-11-20T10:11:13;28.17;;;15.83;;
9844;SDS011;4961;50.782;6.080;2022-11-20T10:13:52;25.70;;;14.93;;
9844;SDS011;4961;50.782;6.080;2022-11-20T10:16:32;30.20;;;16.27;;
9844;SDS011;4961;50.782;6.080;2022-11-20T10:19:12;27.97;;;15.67;;
9844;SDS011;4961;50.782;6.080;2022-11-20T10:21:57;31.00;;;15.73;;
9844;SDS011;4961;50.782;6.080;2022-11-20T10:24:40;29.87;;;16.37;;
9844;SDS011;4961;50.782;6.080;2022-11-20T10:27:32;28.87;;;15.53;;
9844;SDS011;4961;50.782;6.080;2022-11-20T10:30:16;30.00;;;14.87;;
9844;SDS011;4961;50.782;6.080;2022-11-20T10:32:49;26.83;;;13.67;;
9844;SDS011;4961;50.782;6.080;2022-11-20T10:35:20;28.80;;;14.87;;
9844;SDS011;4961;50.782;6.080;2022-11-20T10:37:55;25.33;;;14.90;;
9844;SDS011;4961;50.782;6.080;2022-11-20T10:40:28;26.00;;;13.93;;
9844;SDS011;4961;50.782;6.080;2022-11-20T10:43:03;23.93;;;14.37;;
9844;SDS011;4961;50.782;6.080;2022-11-20T10:45:44;24.87;;;13.50;;
9844;SDS011;4961;50.782;6.080;2022-11-20T10:48:22;25.40;;;14.40;;
9844;SDS011;4961;50.782;6.080;2022-11-20T10:51:00;23.90;;;12.90;;
9844;SDS011;4961;50.782;6.080;2022-11-20T10:53:49;26.67;;;14.27;;
9844;SDS011;4961;50.782;6.080;2022-11-20T10:56:25;25.87;;;14.60;;
9844;SDS011;4961;50.782;6.080;2022-11-20T10:59:03;21.73;;;12.17;;
9844;SDS011;4961;50.782;6.080;2022-11-20T11:01:47;20.70;;;11.87;;
9844;SDS011;4961;50.782;6.080;2022-11-20T11:04:21;20.00;;;12.10;;
9844;SDS011;4961;50.782;6.080;2022-11-20T11:06:58;20.13;;;13.13;;
9844;SDS011;4961;50.782;6.080;2022-11-20T11:09:37;20.77;;;11.70;;
9844;SDS011;4961;50.782;6.080;2022-11-20T11:12:10;19.37;;;11.50;;
9844;SDS011;4961;50.782;6.080;2022-11-20T11:14:42;18.37;;;11.20;;
9844;SDS011;4961;50.782;6.080;2022-11-20T11:17:26;16.27;;;9.60;;
9844;SDS011;4961;50.782;6.080;2022-11-20T11:19:59;17.90;;;9.47;;
9844;SDS011;4961;50.782;6.080;2022-11-20T11:22:34;16.37;;;10.10;;
9844;SDS011;4961;50.782;6.080;2022-11-20T11:25:20;15.20;;;9.67;;
9844;SDS011;4961;50.782;6.080;2022-11-20T11:27:54;15.43;;;9.13;;
9844;SDS011;4961;50.782;6.080;2022-11-20T11:30:25;14.00;;;8.67;;
9844;SDS011;4961;50.782;6.080;2022-11-20T11:33:05;13.77;;;9.10;;
9844;SDS011;4961;50.782;6.080;2022-11-20T11:35:38;10.23;;;8.03;;
9844;SDS011;4961;50.782;6.080;2022-11-20T11:38:18;13.53;;;7.77;;
9844;SDS011;4961;50.782;6.080;2022-11-20T11:40:52;16.33;;;9.00;;
9844;SDS011;4961;50.782;6.080;2022-11-20T11:43:22;10.23;;;6.13;;
9844;SDS011;4961;50.782;6.080;2022-11-20T11:46:27;11.40;;;7.37;;
9844;SDS011;4961;50.782;6.080;2022-11-20T11:48:59;12.70;;;7.30;;
9844;SDS011;4961;50.782;6.080;2022-11-20T11:51:31;12.83;;;8.00;;
9844;SDS011;4961;50.782;6.080;2022-11-20T11:54:05;15.57;;;8.47;;
9844;SDS011;4961;50.782;6.080;2022-11-20T11:56:44;13.20;;;7.97;;
9844;SDS011;4961;50.782;6.080;2022-11-20T11:59:15;10.83;;;6.87;;
9844;SDS011;4961;50.782;6.080;2022-11-20T12:01:54;8.83;;;6.10;;
9844;SDS011;4961;50.782;6.080;2022-11-20T12:04:31;10.93;;;6.63;;
9844;SDS011;4961;50.782;6.080;2022-11-20T12:07:11;9.93;;;5.57;;
9844;SDS011;4961;50.782;6.080;2022-11-20T12:10:04;17.87;;;10.03;;
9844;SDS011;4961;50.782;6.080;2022-11-20T12:12:36;7.40;;;5.57;;
9844;SDS011;4961;50.782;6.080;2022-11-20T12:15:11;6.77;;;5.50;;
9844;SDS011;4961;50.782;6.080;2022-11-20T12:17:56;6.90;;;4.87;;
9844;SDS011;4961;50.782;6.080;2022-11-20T12:20:24;8.53;;;5.40;;
9844;SDS011;4961;50.782;6.080;2022-11-20T12:22:59;9.67;;;4.73;;
9844;SDS011;4961;50.782;6.080;2022-11-20T12:25:34;9.00;;;5.53;;
9844;SDS011;4961;50.782;6.080;2022-11-20T12:28:13;10.67;;;6.33;;
9844;SDS011;4961;50.782;6.080;2022-11-20T12:31:00;10.50;;;4.53;;
9844;SDS011;4961;50.782;6.080;2022-11-20T12:33:59;6.47;;;3.40;;
9844;SDS011;4961;50.782;6.080;2022-11-20T12:36:50;6.03;;;3.03;;
9844;SDS011;4961;50.782;6.080;2022-11-20T12:42:27;4.83;;;3.17;;
9844;SDS011;4961;50.782;6.080;2022-11-20T12:45:31;4.97;;;3.37;;
9844;SDS011;4961;50.782;6.080;2022-11-20T12:48:23;4.10;;;3.03;;
9844;SDS011;4961;50.782;6.080;2022-11-20T12:51:17;3.83;;;2.40;;
9844;SDS011;4961;50.782;6.080;2022-11-20T12:54:04;4.80;;;2.10;;
9844;SDS011;4961;50.782;6.080;2022-11-20T12:56:50;5.30;;;2.70;;
9844;SDS011;4961;50.782;6.080;2022-11-20T12:59:33;4.90;;;2.50;;
9844;SDS011;4961;50.782;6.080;2022-11-20T13:02:18;3.93;;;2.03;;
9844;SDS011;4961;50.782;6.080;2022-11-20T13:05:04;6.53;;;4.10;;
9844;SDS011;4961;50.782;6.080;2022-11-20T13:07:44;6.67;;;4.10;;
9844;SDS011;4961;50.782;6.080;2022-11-20T13:10:15;36.80;;;15.93;;
9844;SDS011;4961;50.782;6.080;2022-11-20T13:12:50;11.23;;;6.30;;
9844;SDS011;4961;50.782;6.080;2022-11-20T13:15:28;6.10;;;2.93;;
9844;SDS011;4961;50.782;6.080;2022-11-20T13:18:09;3.70;;;2.70;;
9844;SDS011;4961;50.782;6.080;2022-11-20T13:20:42;3.70;;;1.10;;
9844;SDS011;4961;50.782;6.080;2022-11-20T13:23:22;1.90;;;1.30;;
9844;SDS011;4961;50.782;6.080;2022-11-20T13:26:04;2.13;;;0.93;;
9844;SDS011;4961;50.782;6.080;2022-11-20T13:28:34;3.37;;;1.33;;
9844;SDS011;4961;50.782;6.080;2022-11-20T13:31:03;3.13;;;2.00;;
9844;SDS011;4961;50.782;6.080;2022-11-20T13:33:35;4.90;;;1.77;;
9844;SDS011;4961;50.782;6.080;2022-11-20T13:36:06;1.67;;;0.67;;
9844;SDS011;4961;50.782;6.080;2022-11-20T13:38:47;1.27;;;0.90;;
9844;SDS011;4961;50.782;6.080;2022-11-20T13:41:23;4.53;;;1.03;;
9844;SDS011;4961;50.782;6.080;2022-11-20T13:43:57;2.17;;;0.80;;
9844;SDS011;4961;50.782;6.080;2022-11-20T13:46:37;12.77;;;7.50;;
9844;SDS011;4961;50.782;6.080;2022-11-20T13:49:10;1.20;;;0.83;;
9844;SDS011;4961;50.782;6.080;2022-11-20T13:51:47;13.17;;;9.43;;
9844;SDS011;4961;50.782;6.080;2022-11-20T13:54:23;2.13;;;1.50;;
9844;SDS011;4961;50.782;6.080;2022-11-20T14:00:25;2.20;;;1.20;;
9844;SDS011;4961;50.782;6.080;2022-11-20T14:03:07;2.27;;;0.80;;
9844;SDS011;4961;50.782;6.080;2022-11-20T14:05:49;1.43;;;0.90;;
9844;SDS011;4961;50.782;6.080;2022-11-20T14:08:28;2.80;;;1.20;;
9844;SDS011;4961;50.782;6.080;2022-11-20T14:11:13;7.07;;;4.07;;
9844;SDS011;4961;50.782;6.080;2022-11-20T14:13:54;4.73;;;1.30;;
9844;SDS011;4961;50.782;6.080;2022-11-20T14:16:26;2.67;;;0.63;;
9844;SDS011;4961;50.782;6.080;2022-11-20T14:18:56;3.13;;;1.20;;
9844;SDS011;4961;50.782;6.080;2022-11-20T14:21:27;1.33;;;0.53;;
9844;SDS011;4961;50.782;6.080;2022-11-20T14:24:04;3.80;;;0.70;;
9844;SDS011;4961;50.782;6.080;2022-11-20T14:26:34;2.03;;;1.83;;
9844;SDS011;4961;50.782;6.080;2022-11-20T14:29:03;1.93;;;0.80;;
9844;SDS011;4961;50.782;6.080;2022-11-20T14:31:32;1.00;;;0.57;;
9844;SDS011;4961;50.782;6.080;2022-11-20T14:34:01;6.07;;;3.67;;
9844;SDS011;4961;50.782;6.080;2022-11-20T14:36:31;2.70;;;1.67;;
9844;SDS011;4961;50.782;6.080;2022-11-20T14:39:00;10.73;;;5.13;;
9844;SDS011;4961;50.782;6.080;2022-11-20T14:41:28;8.70;;;4.77;;
9844;SDS011;4961;50.782;6.080;2022-11-20T14:43:59;3.03;;;1.30;;
9844;SDS011;4961;50.782;6.080;2022-11-20T14:46:28;3.73;;;1.97;;
9844;SDS011;4961;50.782;6.080;2022-11-20T14:49:00;3.07;;;2.37;;
9844;SDS011;4961;50.782;6.080;2022-11-20T14:51:32;15.03;;;7.33;;
9844;SDS011;4961;50.782;6.080;2022-11-20T14:54:11;6.40;;;3.40;;
9844;SDS011;4961;50.782;6.080;2022-11-20T14:56:55;11.53;;;7.20;;
9844;SDS011;4961;50.782;6.080;2022-11-20T14:59:30;7.00;;;4.27;;
9844;SDS011;4961;50.782;6.080;2022-11-20T15:02:01;11.50;;;7.93;;
9844;SDS011;4961;50.782;6.080;2022-11-20T15:04:32;5.40;;;2.20;;
9844;SDS011;4961;50.782;6.080;2022-11-20T15:07:02;29.60;;;16.97;;
9844;SDS011;4961;50.782;6.080;2022-11-20T15:09:30;24.37;;;13.93;;
9844;SDS011;4961;50.782;6.080;2022-11-20T15:11:59;36.43;;;19.13;;
9844;SDS011;4961;50.782;6.080;2022-11-20T15:14:30;15.37;;;10.03;;
9844;SDS011;4961;50.782;6.080;2022-11-20T15:17:00;11.70;;;8.77;;
9844;SDS011;4961;50.782;6.080;2022-11-20T15:19:28;13.80;;;12.70;;
9844;SDS011;4961;50.782;6.080;2022-11-20T15:21:57;5.17;;;2.13;;
9844;SDS011;4961;50.782;6.080;2022-11-20T15:24:27;3.70;;;1.97;;
9844;SDS011;4961;50.782;6.080;2022-11-20T15:26:56;3.23;;;2.10;;
9844;SDS011;4961;50.782;6.080;2022-11-20T15:29:25;2.07;;;1.23;;
9844;SDS011;4961;50.782;6.080;2022-11-20T15:31:54;2.90;;;1.43;;